Aeroporto :
LOGIN :

Iscrizione | Disclaimer

   EN    FR    IT 

 










Sommario :    VFR   VFR Marginale   IFR   IFR Intensivo   IFR Molto Intensivo
Visibilità : 
Base nubi : 
>= 8 km
>= 3000ft
5 / 8 km
1000 / 3000 ft
1500m / 5 km
500 / 1000 ft
800 / 1500m
200 / 500 ft
< 800m
< 200 ft
Simboli :   Temporali  Nebbia  Neve Forte  Precipitazioni Forti  Vento > 20 kt
SIGMETs :   Varie  Temporali  Ghiacco  Turbolenza  Onda orograficha  Ceneri Vulcaniche







- Altitudine del aeroporto : 96 ft
- Codice IATA : REG


LICR - Reggio Calabria

ULTIMO METAR :
  • 261050Z 35017KT 9999 FEW040 29/21 Q1017

METARs OBSOLETI :
  • 260950Z 36015KT CAVOK 30/21 Q1018
  • 260850Z 35017KT CAVOK 29/21 Q1018

TAF TAF LICR
Valido dal 26 a 12 ore il 27 a 12 ore UTC


261100Z 2612/2712 35012KT CAVOK
PROB40
TEMPO 2612/2616 TSRA
BECMG 2619/2621 VRB05KT
BECMG 2710/2712 35010KT
Nessun NOTAM noto per questo aeroporto.



MetMap, La meteo Aeronautica in un colpo d'occhio ! - Copyright ORBIFLY Dicembre 2007 - Disclaimer

ORBIFLY MET'MAP TEAM :

Programmazione e sviluppo : Alexandra Zaïnal
Concezione e sviluppo : Baudouin d'Aumeries
Co-Programmazione e sviluppo : Marc-Olivier Méhu
Supporto tecnico e logistico : Manuel Goepfert
Aiuto per la traduzione : Arnaldo La Scala

Contatto : metmap@orbifly.com




FONTI E CREDITI :

   NOAA